sensor_id;sensor_type;location;lat;lon;timestamp;P1;durP1;ratioP1;P2;durP2;ratioP2
57858;SDS011;49153;45.568;11.894;2022-11-14T00:02:22;16.80;;;9.98;;
57858;SDS011;49153;45.568;11.894;2022-11-14T00:04:47;14.57;;;9.45;;
57858;SDS011;49153;45.568;11.894;2022-11-14T00:07:13;15.23;;;10.15;;
57858;SDS011;49153;45.568;11.894;2022-11-14T00:09:39;15.32;;;10.05;;
57858;SDS011;49153;45.568;11.894;2022-11-14T00:12:10;15.32;;;9.95;;
57858;SDS011;49153;45.568;11.894;2022-11-14T00:14:36;17.55;;;10.85;;
57858;SDS011;49153;45.568;11.894;2022-11-14T00:17:02;16.17;;;10.35;;
57858;SDS011;49153;45.568;11.894;2022-11-14T00:19:27;15.75;;;10.40;;
57858;SDS011;49153;45.568;11.894;2022-11-14T00:21:53;17.27;;;10.43;;
57858;SDS011;49153;45.568;11.894;2022-11-14T00:24:18;15.43;;;10.10;;
57858;SDS011;49153;45.568;11.894;2022-11-14T00:26:44;17.35;;;9.73;;
57858;SDS011;49153;45.568;11.894;2022-11-14T00:29:10;16.90;;;10.65;;
57858;SDS011;49153;45.568;11.894;2022-11-14T00:31:36;16.58;;;10.55;;
57858;SDS011;49153;45.568;11.894;2022-11-14T00:34:02;18.27;;;10.93;;
57858;SDS011;49153;45.568;11.894;2022-11-14T00:36:28;16.20;;;10.30;;
57858;SDS011;49153;45.568;11.894;2022-11-14T00:38:53;15.70;;;10.35;;
57858;SDS011;49153;45.568;11.894;2022-11-14T00:41:19;15.52;;;9.63;;
57858;SDS011;49153;45.568;11.894;2022-11-14T00:43:45;16.35;;;10.35;;
57858;SDS011;49153;45.568;11.894;2022-11-14T00:46:10;15.98;;;9.75;;
57858;SDS011;49153;45.568;11.894;2022-11-14T00:48:36;14.45;;;9.00;;
57858;SDS011;49153;45.568;11.894;2022-11-14T00:51:01;15.75;;;10.07;;
57858;SDS011;49153;45.568;11.894;2022-11-14T00:53:27;16.40;;;10.23;;
57858;SDS011;49153;45.568;11.894;2022-11-14T00:55:52;16.80;;;10.80;;
57858;SDS011;49153;45.568;11.894;2022-11-14T00:58:17;15.82;;;10.25;;
57858;SDS011;49153;45.568;11.894;2022-11-14T01:00:43;14.73;;;9.43;;
57858;SDS011;49153;45.568;11.894;2022-11-14T01:03:08;16.55;;;10.45;;
57858;SDS011;49153;45.568;11.894;2022-11-14T01:05:39;15.15;;;9.75;;
57858;SDS011;49153;45.568;11.894;2022-11-14T01:08:08;15.45;;;10.00;;
57858;SDS011;49153;45.568;11.894;2022-11-14T01:10:37;16.20;;;9.60;;
57858;SDS011;49153;45.568;11.894;2022-11-14T01:13:04;16.80;;;10.50;;
57858;SDS011;49153;45.568;11.894;2022-11-14T01:15:30;14.02;;;9.25;;
57858;SDS011;49153;45.568;11.894;2022-11-14T01:17:55;15.13;;;9.63;;
57858;SDS011;49153;45.568;11.894;2022-11-14T01:20:21;15.02;;;9.85;;
57858;SDS011;49153;45.568;11.894;2022-11-14T01:22:46;16.10;;;9.85;;
57858;SDS011;49153;45.568;11.894;2022-11-14T01:25:12;14.07;;;9.60;;
57858;SDS011;49153;45.568;11.894;2022-11-14T01:27:37;14.77;;;9.77;;
57858;SDS011;49153;45.568;11.894;2022-11-14T01:30:03;16.15;;;9.73;;
57858;SDS011;49153;45.568;11.894;2022-11-14T01:32:28;15.75;;;9.48;;
57858;SDS011;49153;45.568;11.894;2022-11-14T01:34:54;14.13;;;9.18;;
57858;SDS011;49153;45.568;11.894;2022-11-14T01:37:19;15.10;;;9.35;;
57858;SDS011;49153;45.568;11.894;2022-11-14T01:39:45;17.63;;;9.80;;
57858;SDS011;49153;45.568;11.894;2022-11-14T01:42:10;14.20;;;9.18;;
57858;SDS011;49153;45.568;11.894;2022-11-14T01:47:20;16.00;;;9.80;;
57858;SDS011;49153;45.568;11.894;2022-11-14T01:52:24;15.63;;;9.07;;
57858;SDS011;49153;45.568;11.894;2022-11-14T01:54:56;14.63;;;8.75;;
57858;SDS011;49153;45.568;11.894;2022-11-14T01:59:59;15.05;;;8.75;;
57858;SDS011;49153;45.568;11.894;2022-11-14T02:02:26;16.20;;;10.05;;
57858;SDS011;49153;45.568;11.894;2022-11-14T02:04:56;16.40;;;10.55;;
57858;SDS011;49153;45.568;11.894;2022-11-14T02:07:26;14.48;;;9.35;;
57858;SDS011;49153;45.568;11.894;2022-11-14T02:09:53;14.30;;;9.52;;
57858;SDS011;49153;45.568;11.894;2022-11-14T02:12:19;14.07;;;9.55;;
57858;SDS011;49153;45.568;11.894;2022-11-14T02:14:45;13.43;;;9.40;;
57858;SDS011;49153;45.568;11.894;2022-11-14T02:17:13;15.02;;;9.35;;
57858;SDS011;49153;45.568;11.894;2022-11-14T02:19:45;15.45;;;9.95;;
57858;SDS011;49153;45.568;11.894;2022-11-14T02:22:12;16.95;;;10.25;;
57858;SDS011;49153;45.568;11.894;2022-11-14T02:24:38;16.88;;;10.07;;
57858;SDS011;49153;45.568;11.894;2022-11-14T02:27:04;16.48;;;9.60;;
57858;SDS011;49153;45.568;11.894;2022-11-14T02:29:31;16.20;;;10.05;;
57858;SDS011;49153;45.568;11.894;2022-11-14T02:31:57;15.68;;;9.68;;
57858;SDS011;49153;45.568;11.894;2022-11-14T02:34:23;15.23;;;9.45;;
57858;SDS011;49153;45.568;11.894;2022-11-14T02:36:48;14.48;;;9.30;;
57858;SDS011;49153;45.568;11.894;2022-11-14T02:39:13;13.60;;;9.25;;
57858;SDS011;49153;45.568;11.894;2022-11-14T02:41:39;15.30;;;9.65;;
57858;SDS011;49153;45.568;11.894;2022-11-14T02:44:04;15.68;;;9.77;;
57858;SDS011;49153;45.568;11.894;2022-11-14T02:46:29;16.45;;;9.70;;
57858;SDS011;49153;45.568;11.894;2022-11-14T02:48:55;13.45;;;9.50;;
57858;SDS011;49153;45.568;11.894;2022-11-14T02:51:20;15.43;;;8.85;;
57858;SDS011;49153;45.568;11.894;2022-11-14T02:53:45;15.20;;;9.50;;
57858;SDS011;49153;45.568;11.894;2022-11-14T02:56:11;15.02;;;9.13;;
57858;SDS011;49153;45.568;11.894;2022-11-14T02:58:36;14.88;;;9.48;;
57858;SDS011;49153;45.568;11.894;2022-11-14T03:01:02;14.23;;;8.77;;
57858;SDS011;49153;45.568;11.894;2022-11-14T03:03:27;14.35;;;9.32;;
57858;SDS011;49153;45.568;11.894;2022-11-14T03:05:57;15.07;;;8.90;;
57858;SDS011;49153;45.568;11.894;2022-11-14T03:08:25;16.27;;;9.70;;
57858;SDS011;49153;45.568;11.894;2022-11-14T03:10:51;15.43;;;9.35;;
57858;SDS011;49153;45.568;11.894;2022-11-14T03:13:17;14.68;;;8.50;;
57858;SDS011;49153;45.568;11.894;2022-11-14T03:15:42;16.00;;;9.35;;
57858;SDS011;49153;45.568;11.894;2022-11-14T03:18:07;14.57;;;8.93;;
57858;SDS011;49153;45.568;11.894;2022-11-14T03:20:33;12.63;;;8.45;;
57858;SDS011;49153;45.568;11.894;2022-11-14T03:22:59;15.23;;;9.18;;
57858;SDS011;49153;45.568;11.894;2022-11-14T03:25:24;13.73;;;8.52;;
57858;SDS011;49153;45.568;11.894;2022-11-14T03:27:50;14.73;;;9.30;;
57858;SDS011;49153;45.568;11.894;2022-11-14T03:30:15;14.05;;;8.80;;
57858;SDS011;49153;45.568;11.894;2022-11-14T03:32:41;12.30;;;8.02;;
57858;SDS011;49153;45.568;11.894;2022-11-14T03:35:07;13.18;;;8.30;;
57858;SDS011;49153;45.568;11.894;2022-11-14T03:37:32;13.50;;;8.73;;
57858;SDS011;49153;45.568;11.894;2022-11-14T03:39:58;15.25;;;8.73;;
57858;SDS011;49153;45.568;11.894;2022-11-14T03:42:23;13.88;;;8.77;;
57858;SDS011;49153;45.568;11.894;2022-11-14T03:44:49;13.45;;;8.15;;
57858;SDS011;49153;45.568;11.894;2022-11-14T03:47:14;13.80;;;8.75;;
57858;SDS011;49153;45.568;11.894;2022-11-14T03:49:39;13.25;;;9.30;;
57858;SDS011;49153;45.568;11.894;2022-11-14T03:52:05;14.15;;;8.80;;
57858;SDS011;49153;45.568;11.894;2022-11-14T03:54:30;13.65;;;8.95;;
57858;SDS011;49153;45.568;11.894;2022-11-14T03:56:55;14.80;;;8.75;;
57858;SDS011;49153;45.568;11.894;2022-11-14T03:59:21;14.40;;;8.50;;
57858;SDS011;49153;45.568;11.894;2022-11-14T04:01:46;15.00;;;9.15;;
57858;SDS011;49153;45.568;11.894;2022-11-14T04:04:13;14.23;;;8.60;;
57858;SDS011;49153;45.568;11.894;2022-11-14T04:06:38;14.35;;;9.27;;
57858;SDS011;49153;45.568;11.894;2022-11-14T04:09:04;13.45;;;8.15;;
57858;SDS011;49153;45.568;11.894;2022-11-14T04:11:30;15.20;;;8.73;;
57858;SDS011;49153;45.568;11.894;2022-11-14T04:13:56;12.23;;;8.30;;
57858;SDS011;49153;45.568;11.894;2022-11-14T04:16:21;12.05;;;7.97;;
57858;SDS011;49153;45.568;11.894;2022-11-14T04:18:46;13.45;;;8.70;;
57858;SDS011;49153;45.568;11.894;2022-11-14T04:21:12;13.05;;;8.57;;
57858;SDS011;49153;45.568;11.894;2022-11-14T04:23:37;13.85;;;9.25;;
57858;SDS011;49153;45.568;11.894;2022-11-14T04:26:03;14.40;;;8.60;;
57858;SDS011;49153;45.568;11.894;2022-11-14T04:28:28;13.07;;;8.30;;
57858;SDS011;49153;45.568;11.894;2022-11-14T04:30:53;13.63;;;8.43;;
57858;SDS011;49153;45.568;11.894;2022-11-14T04:33:19;13.13;;;8.45;;
57858;SDS011;49153;45.568;11.894;2022-11-14T04:35:44;13.30;;;8.05;;
57858;SDS011;49153;45.568;11.894;2022-11-14T04:38:10;13.13;;;8.35;;
57858;SDS011;49153;45.568;11.894;2022-11-14T04:40:35;12.40;;;7.97;;
57858;SDS011;49153;45.568;11.894;2022-11-14T04:43:00;12.07;;;7.72;;
57858;SDS011;49153;45.568;11.894;2022-11-14T04:45:26;14.23;;;8.32;;
57858;SDS011;49153;45.568;11.894;2022-11-14T04:47:51;12.55;;;7.90;;
57858;SDS011;49153;45.568;11.894;2022-11-14T04:50:16;14.07;;;8.32;;
57858;SDS011;49153;45.568;11.894;2022-11-14T04:52:42;11.45;;;8.00;;
57858;SDS011;49153;45.568;11.894;2022-11-14T04:55:07;13.70;;;8.25;;
57858;SDS011;49153;45.568;11.894;2022-11-14T04:57:33;13.55;;;8.63;;
57858;SDS011;49153;45.568;11.894;2022-11-14T04:59:58;12.68;;;7.90;;
57858;SDS011;49153;45.568;11.894;2022-11-14T05:02:24;13.93;;;9.25;;
57858;SDS011;49153;45.568;11.894;2022-11-14T05:04:49;14.20;;;9.00;;
57858;SDS011;49153;45.568;11.894;2022-11-14T05:07:14;13.75;;;9.02;;
57858;SDS011;49153;45.568;11.894;2022-11-14T05:09:40;15.32;;;9.18;;
57858;SDS011;49153;45.568;11.894;2022-11-14T05:12:05;13.70;;;8.45;;
57858;SDS011;49153;45.568;11.894;2022-11-14T05:14:31;12.85;;;8.98;;
57858;SDS011;49153;45.568;11.894;2022-11-14T05:16:57;12.05;;;7.97;;
57858;SDS011;49153;45.568;11.894;2022-11-14T05:19:22;13.95;;;8.45;;
57858;SDS011;49153;45.568;11.894;2022-11-14T05:21:48;13.93;;;9.00;;
57858;SDS011;49153;45.568;11.894;2022-11-14T05:24:13;14.95;;;8.35;;
57858;SDS011;49153;45.568;11.894;2022-11-14T05:26:39;14.43;;;8.55;;
57858;SDS011;49153;45.568;11.894;2022-11-14T05:29:04;13.38;;;8.88;;
57858;SDS011;49153;45.568;11.894;2022-11-14T05:31:30;13.55;;;8.50;;
57858;SDS011;49153;45.568;11.894;2022-11-14T05:33:55;12.93;;;8.35;;
57858;SDS011;49153;45.568;11.894;2022-11-14T05:36:21;12.35;;;8.15;;
57858;SDS011;49153;45.568;11.894;2022-11-14T05:38:46;13.60;;;8.00;;
57858;SDS011;49153;45.568;11.894;2022-11-14T05:41:12;12.48;;;8.48;;
57858;SDS011;49153;45.568;11.894;2022-11-14T05:43:39;13.77;;;8.35;;
57858;SDS011;49153;45.568;11.894;2022-11-14T05:46:06;13.13;;;9.27;;
57858;SDS011;49153;45.568;11.894;2022-11-14T05:48:34;13.50;;;8.98;;
57858;SDS011;49153;45.568;11.894;2022-11-14T05:51:00;12.85;;;8.80;;
57858;SDS011;49153;45.568;11.894;2022-11-14T05:53:28;14.68;;;9.25;;
57858;SDS011;49153;45.568;11.894;2022-11-14T05:55:58;14.90;;;8.95;;
57858;SDS011;49153;45.568;11.894;2022-11-14T05:58:25;14.40;;;9.33;;
57858;SDS011;49153;45.568;11.894;2022-11-14T06:00:50;13.65;;;8.85;;
57858;SDS011;49153;45.568;11.894;2022-11-14T06:03:15;13.80;;;8.88;;
57858;SDS011;49153;45.568;11.894;2022-11-14T06:05:41;13.52;;;8.48;;
57858;SDS011;49153;45.568;11.894;2022-11-14T06:08:07;13.40;;;8.75;;
57858;SDS011;49153;45.568;11.894;2022-11-14T06:10:33;13.77;;;8.27;;
57858;SDS011;49153;45.568;11.894;2022-11-14T06:12:59;12.00;;;7.97;;
57858;SDS011;49153;45.568;11.894;2022-11-14T06:15:25;13.85;;;8.48;;
57858;SDS011;49153;45.568;11.894;2022-11-14T06:17:53;12.27;;;8.18;;
57858;SDS011;49153;45.568;11.894;2022-11-14T06:20:19;12.65;;;7.90;;
57858;SDS011;49153;45.568;11.894;2022-11-14T06:22:45;13.43;;;8.65;;
57858;SDS011;49153;45.568;11.894;2022-11-14T06:25:11;12.63;;;8.57;;
57858;SDS011;49153;45.568;11.894;2022-11-14T06:27:36;12.55;;;8.15;;
57858;SDS011;49153;45.568;11.894;2022-11-14T06:30:02;12.18;;;8.10;;
57858;SDS011;49153;45.568;11.894;2022-11-14T06:32:27;13.77;;;7.75;;
57858;SDS011;49153;45.568;11.894;2022-11-14T06:34:53;11.43;;;7.47;;
57858;SDS011;49153;45.568;11.894;2022-11-14T06:37:18;10.50;;;7.38;;
57858;SDS011;49153;45.568;11.894;2022-11-14T06:39:43;17.95;;;8.30;;
57858;SDS011;49153;45.568;11.894;2022-11-14T06:42:09;12.77;;;7.82;;
57858;SDS011;49153;45.568;11.894;2022-11-14T06:44:34;17.02;;;7.93;;
57858;SDS011;49153;45.568;11.894;2022-11-14T06:46:59;13.27;;;7.40;;
57858;SDS011;49153;45.568;11.894;2022-11-14T06:49:25;15.57;;;8.00;;
57858;SDS011;49153;45.568;11.894;2022-11-14T06:51:51;15.00;;;7.68;;
57858;SDS011;49153;45.568;11.894;2022-11-14T06:54:17;13.95;;;7.97;;
57858;SDS011;49153;45.568;11.894;2022-11-14T06:56:42;12.75;;;7.47;;
57858;SDS011;49153;45.568;11.894;2022-11-14T06:59:08;12.80;;;8.13;;
57858;SDS011;49153;45.568;11.894;2022-11-14T07:01:33;13.55;;;7.50;;
57858;SDS011;49153;45.568;11.894;2022-11-14T07:03:59;13.88;;;8.52;;
57858;SDS011;49153;45.568;11.894;2022-11-14T07:06:26;15.02;;;8.68;;
57858;SDS011;49153;45.568;11.894;2022-11-14T07:08:53;16.20;;;8.38;;
57858;SDS011;49153;45.568;11.894;2022-11-14T07:11:20;12.45;;;7.70;;
57858;SDS011;49153;45.568;11.894;2022-11-14T07:13:51;11.20;;;7.93;;
57858;SDS011;49153;45.568;11.894;2022-11-14T07:16:17;12.13;;;8.57;;
57858;SDS011;49153;45.568;11.894;2022-11-14T07:18:43;12.57;;;8.02;;
57858;SDS011;49153;45.568;11.894;2022-11-14T07:21:09;11.25;;;8.18;;
57858;SDS011;49153;45.568;11.894;2022-11-14T07:23:37;13.25;;;8.48;;
57858;SDS011;49153;45.568;11.894;2022-11-14T07:26:04;15.50;;;8.35;;
57858;SDS011;49153;45.568;11.894;2022-11-14T07:28:31;11.88;;;7.93;;
57858;SDS011;49153;45.568;11.894;2022-11-14T07:30:58;13.38;;;8.32;;
57858;SDS011;49153;45.568;11.894;2022-11-14T07:33:23;13.20;;;8.32;;
57858;SDS011;49153;45.568;11.894;2022-11-14T07:35:49;13.35;;;8.80;;
57858;SDS011;49153;45.568;11.894;2022-11-14T07:38:15;13.23;;;8.48;;
57858;SDS011;49153;45.568;11.894;2022-11-14T07:40:40;13.82;;;8.52;;
57858;SDS011;49153;45.568;11.894;2022-11-14T07:43:06;14.20;;;8.57;;
57858;SDS011;49153;45.568;11.894;2022-11-14T07:45:31;18.15;;;10.68;;
57858;SDS011;49153;45.568;11.894;2022-11-14T07:47:57;20.92;;;13.05;;
57858;SDS011;49153;45.568;11.894;2022-11-14T07:50:25;17.52;;;11.00;;
57858;SDS011;49153;45.568;11.894;2022-11-14T07:52:52;15.27;;;10.48;;
57858;SDS011;49153;45.568;11.894;2022-11-14T07:55:18;17.10;;;10.77;;
57858;SDS011;49153;45.568;11.894;2022-11-14T07:57:44;12.73;;;9.43;;
57858;SDS011;49153;45.568;11.894;2022-11-14T08:00:11;15.23;;;10.52;;
57858;SDS011;49153;45.568;11.894;2022-11-14T08:02:38;15.18;;;9.27;;
57858;SDS011;49153;45.568;11.894;2022-11-14T08:05:03;14.45;;;8.77;;
57858;SDS011;49153;45.568;11.894;2022-11-14T08:07:29;14.63;;;8.48;;
57858;SDS011;49153;45.568;11.894;2022-11-14T08:09:54;12.43;;;8.35;;
57858;SDS011;49153;45.568;11.894;2022-11-14T08:12:20;14.32;;;8.48;;
57858;SDS011;49153;45.568;11.894;2022-11-14T08:14:45;12.13;;;7.57;;
57858;SDS011;49153;45.568;11.894;2022-11-14T08:17:11;13.73;;;7.88;;
57858;SDS011;49153;45.568;11.894;2022-11-14T08:19:36;13.68;;;7.72;;
57858;SDS011;49153;45.568;11.894;2022-11-14T08:22:01;14.68;;;7.38;;
57858;SDS011;49153;45.568;11.894;2022-11-14T08:24:27;10.93;;;7.07;;
57858;SDS011;49153;45.568;11.894;2022-11-14T08:26:52;12.93;;;7.80;;
57858;SDS011;49153;45.568;11.894;2022-11-14T08:29:18;10.38;;;6.55;;
57858;SDS011;49153;45.568;11.894;2022-11-14T08:31:44;12.50;;;6.97;;
57858;SDS011;49153;45.568;11.894;2022-11-14T08:34:10;11.98;;;6.20;;
57858;SDS011;49153;45.568;11.894;2022-11-14T08:36:35;10.38;;;6.18;;
57858;SDS011;49153;45.568;11.894;2022-11-14T08:39:01;11.60;;;6.43;;
57858;SDS011;49153;45.568;11.894;2022-11-14T08:41:26;9.60;;;6.30;;
57858;SDS011;49153;45.568;11.894;2022-11-14T08:43:52;8.60;;;5.47;;
57858;SDS011;49153;45.568;11.894;2022-11-14T08:46:17;10.00;;;5.40;;
57858;SDS011;49153;45.568;11.894;2022-11-14T08:48:43;8.68;;;4.90;;
57858;SDS011;49153;45.568;11.894;2022-11-14T08:51:08;6.78;;;4.45;;
57858;SDS011;49153;45.568;11.894;2022-11-14T08:53:34;8.05;;;4.72;;
57858;SDS011;49153;45.568;11.894;2022-11-14T08:55:59;6.88;;;4.22;;
57858;SDS011;49153;45.568;11.894;2022-11-14T08:58:28;6.70;;;3.88;;
57858;SDS011;49153;45.568;11.894;2022-11-14T09:00:58;6.55;;;3.90;;
57858;SDS011;49153;45.568;11.894;2022-11-14T09:03:28;6.40;;;3.58;;
57858;SDS011;49153;45.568;11.894;2022-11-14T09:05:53;5.55;;;4.00;;
57858;SDS011;49153;45.568;11.894;2022-11-14T09:08:19;8.15;;;4.05;;
57858;SDS011;49153;45.568;11.894;2022-11-14T09:10:45;8.88;;;3.95;;
57858;SDS011;49153;45.568;11.894;2022-11-14T09:13:10;5.38;;;3.63;;
57858;SDS011;49153;45.568;11.894;2022-11-14T09:15:36;5.95;;;3.90;;
57858;SDS011;49153;45.568;11.894;2022-11-14T09:18:01;5.28;;;3.47;;
57858;SDS011;49153;45.568;11.894;2022-11-14T09:20:27;5.78;;;3.60;;
57858;SDS011;49153;45.568;11.894;2022-11-14T09:22:56;6.03;;;3.47;;
57858;SDS011;49153;45.568;11.894;2022-11-14T09:25:23;6.70;;;3.78;;
57858;SDS011;49153;45.568;11.894;2022-11-14T09:27:50;5.15;;;3.42;;
57858;SDS011;49153;45.568;11.894;2022-11-14T09:30:16;4.95;;;3.58;;
57858;SDS011;49153;45.568;11.894;2022-11-14T09:32:41;5.75;;;3.67;;
57858;SDS011;49153;45.568;11.894;2022-11-14T09:35:07;5.75;;;3.55;;
57858;SDS011;49153;45.568;11.894;2022-11-14T09:37:32;5.38;;;3.30;;
57858;SDS011;49153;45.568;11.894;2022-11-14T09:39:57;6.10;;;3.80;;
57858;SDS011;49153;45.568;11.894;2022-11-14T09:47:23;5.50;;;3.08;;
57858;SDS011;49153;45.568;11.894;2022-11-14T09:49:54;5.50;;;3.03;;
57858;SDS011;49153;45.568;11.894;2022-11-14T09:52:37;5.60;;;3.25;;
57858;SDS011;49153;45.568;11.894;2022-11-14T09:55:11;4.88;;;3.35;;
57858;SDS011;49153;45.568;11.894;2022-11-14T09:57:41;6.20;;;3.75;;
57858;SDS011;49153;45.568;11.894;2022-11-14T10:00:12;5.05;;;3.30;;
57858;SDS011;49153;45.568;11.894;2022-11-14T10:11:09;6.10;;;4.00;;
57858;SDS011;49153;45.568;11.894;2022-11-14T10:19:02;5.53;;;3.65;;
57858;SDS011;49153;45.568;11.894;2022-11-14T10:27:02;6.10;;;3.37;;
57858;SDS011;49153;45.568;11.894;2022-11-14T10:29:39;5.93;;;3.80;;
57858;SDS011;49153;45.568;11.894;2022-11-14T10:32:26;5.75;;;3.90;;
57858;SDS011;49153;45.568;11.894;2022-11-14T10:35:17;6.55;;;3.60;;
57858;SDS011;49153;45.568;11.894;2022-11-14T10:38:08;6.82;;;4.03;;
57858;SDS011;49153;45.568;11.894;2022-11-14T10:40:38;6.38;;;3.80;;
57858;SDS011;49153;45.568;11.894;2022-11-14T10:45:49;5.90;;;3.63;;
57858;SDS011;49153;45.568;11.894;2022-11-14T10:53:54;5.47;;;3.83;;
57858;SDS011;49153;45.568;11.894;2022-11-14T10:56:21;7.32;;;4.05;;
57858;SDS011;49153;45.568;11.894;2022-11-14T10:58:46;4.88;;;3.30;;
57858;SDS011;49153;45.568;11.894;2022-11-14T11:04:12;6.35;;;3.95;;
57858;SDS011;49153;45.568;11.894;2022-11-14T11:06:43;6.63;;;4.13;;
57858;SDS011;49153;45.568;11.894;2022-11-14T11:09:19;7.35;;;3.97;;
57858;SDS011;49153;45.568;11.894;2022-11-14T11:12:08;5.55;;;3.63;;
57858;SDS011;49153;45.568;11.894;2022-11-14T11:14:40;5.45;;;3.80;;
57858;SDS011;49153;45.568;11.894;2022-11-14T11:17:06;6.28;;;3.85;;
57858;SDS011;49153;45.568;11.894;2022-11-14T11:19:35;4.90;;;3.47;;
57858;SDS011;49153;45.568;11.894;2022-11-14T11:22:02;5.40;;;3.78;;
57858;SDS011;49153;45.568;11.894;2022-11-14T11:24:35;6.55;;;4.03;;
57858;SDS011;49153;45.568;11.894;2022-11-14T11:27:11;5.15;;;3.47;;
57858;SDS011;49153;45.568;11.894;2022-11-14T11:29:44;6.07;;;3.33;;
57858;SDS011;49153;45.568;11.894;2022-11-14T11:32:10;6.32;;;3.20;;
57858;SDS011;49153;45.568;11.894;2022-11-14T11:34:35;5.18;;;3.78;;
57858;SDS011;49153;45.568;11.894;2022-11-14T11:37:21;4.72;;;3.22;;
57858;SDS011;49153;45.568;11.894;2022-11-14T11:39:58;5.85;;;3.92;;
57858;SDS011;49153;45.568;11.894;2022-11-14T11:42:35;6.38;;;4.07;;
57858;SDS011;49153;45.568;11.894;2022-11-14T11:45:13;5.75;;;3.38;;
57858;SDS011;49153;45.568;11.894;2022-11-14T11:47:45;5.97;;;3.67;;
57858;SDS011;49153;45.568;11.894;2022-11-14T11:50:27;4.80;;;3.30;;
57858;SDS011;49153;45.568;11.894;2022-11-14T11:55:38;6.30;;;3.35;;
57858;SDS011;49153;45.568;11.894;2022-11-14T11:58:16;5.95;;;3.72;;
57858;SDS011;49153;45.568;11.894;2022-11-14T12:00:49;6.15;;;3.90;;
57858;SDS011;49153;45.568;11.894;2022-11-14T12:03:20;7.18;;;3.63;;
57858;SDS011;49153;45.568;11.894;2022-11-14T12:09:00;6.25;;;3.25;;
57858;SDS011;49153;45.568;11.894;2022-11-14T12:11:53;5.53;;;3.60;;
57858;SDS011;49153;45.568;11.894;2022-11-14T12:20:16;4.53;;;3.55;;
57858;SDS011;49153;45.568;11.894;2022-11-14T12:31:12;5.05;;;3.55;;
57858;SDS011;49153;45.568;11.894;2022-11-14T12:33:49;7.35;;;3.60;;
57858;SDS011;49153;45.568;11.894;2022-11-14T12:36:28;6.22;;;4.00;;
57858;SDS011;49153;45.568;11.894;2022-11-14T12:38:56;6.82;;;4.55;;
57858;SDS011;49153;45.568;11.894;2022-11-14T12:41:40;6.57;;;4.53;;
57858;SDS011;49153;45.568;11.894;2022-11-14T12:44:15;6.47;;;3.80;;
57858;SDS011;49153;45.568;11.894;2022-11-14T12:57:56;5.15;;;3.58;;
57858;SDS011;49153;45.568;11.894;2022-11-14T13:05:58;5.03;;;3.60;;
57858;SDS011;49153;45.568;11.894;2022-11-14T13:14:14;3.80;;;2.88;;
57858;SDS011;49153;45.568;11.894;2022-11-14T13:19:53;6.35;;;3.60;;
57858;SDS011;49153;45.568;11.894;2022-11-14T13:27:35;4.50;;;3.10;;
57858;SDS011;49153;45.568;11.894;2022-11-14T13:30:02;5.38;;;3.33;;
57858;SDS011;49153;45.568;11.894;2022-11-14T13:33:13;6.10;;;3.63;;
57858;SDS011;49153;45.568;11.894;2022-11-14T13:35:36;4.95;;;2.88;;
57858;SDS011;49153;45.568;11.894;2022-11-14T13:38:13;7.38;;;3.78;;
57858;SDS011;49153;45.568;11.894;2022-11-14T13:41:04;4.85;;;3.58;;
57858;SDS011;49153;45.568;11.894;2022-11-14T13:51:16;5.78;;;3.45;;
57858;SDS011;49153;45.568;11.894;2022-11-14T13:53:44;5.75;;;3.50;;
57858;SDS011;49153;45.568;11.894;2022-11-14T13:56:29;5.07;;;3.28;;
57858;SDS011;49153;45.568;11.894;2022-11-14T14:14:12;6.05;;;3.78;;
57858;SDS011;49153;45.568;11.894;2022-11-14T14:28:14;5.68;;;4.35;;
57858;SDS011;49153;45.568;11.894;2022-11-14T14:33:39;5.43;;;3.95;;
57858;SDS011;49153;45.568;11.894;2022-11-14T14:36:23;7.63;;;4.38;;
57858;SDS011;49153;45.568;11.894;2022-11-14T14:38:50;6.40;;;4.35;;
57858;SDS011;49153;45.568;11.894;2022-11-14T14:41:39;5.50;;;4.30;;
57858;SDS011;49153;45.568;11.894;2022-11-14T14:44:05;5.18;;;3.45;;
57858;SDS011;49153;45.568;11.894;2022-11-14T14:46:31;6.25;;;3.70;;
57858;SDS011;49153;45.568;11.894;2022-11-14T14:48:57;5.90;;;3.80;;
57858;SDS011;49153;45.568;11.894;2022-11-14T14:51:31;6.38;;;3.92;;
57858;SDS011;49153;45.568;11.894;2022-11-14T14:53:58;6.13;;;4.30;;
57858;SDS011;49153;45.568;11.894;2022-11-14T14:56:25;6.45;;;4.50;;
57858;SDS011;49153;45.568;11.894;2022-11-14T14:58:52;6.95;;;4.22;;
57858;SDS011;49153;45.568;11.894;2022-11-14T15:01:19;9.25;;;4.43;;
57858;SDS011;49153;45.568;11.894;2022-11-14T15:03:56;7.47;;;4.25;;
57858;SDS011;49153;45.568;11.894;2022-11-14T15:06:34;5.75;;;4.28;;
57858;SDS011;49153;45.568;11.894;2022-11-14T15:09:07;5.22;;;4.00;;
57858;SDS011;49153;45.568;11.894;2022-11-14T15:11:39;7.72;;;4.30;;
57858;SDS011;49153;45.568;11.894;2022-11-14T15:14:08;6.75;;;4.13;;
57858;SDS011;49153;45.568;11.894;2022-11-14T15:16:37;8.93;;;4.85;;
57858;SDS011;49153;45.568;11.894;2022-11-14T15:19:04;9.15;;;4.50;;
57858;SDS011;49153;45.568;11.894;2022-11-14T15:21:30;7.30;;;4.30;;
57858;SDS011;49153;45.568;11.894;2022-11-14T15:23:59;7.32;;;4.65;;
57858;SDS011;49153;45.568;11.894;2022-11-14T15:26:34;7.05;;;4.63;;
57858;SDS011;49153;45.568;11.894;2022-11-14T15:29:09;7.38;;;4.47;;
57858;SDS011;49153;45.568;11.894;2022-11-14T15:34:25;6.93;;;4.80;;
57858;SDS011;49153;45.568;11.894;2022-11-14T15:37:05;6.57;;;4.80;;
57858;SDS011;49153;45.568;11.894;2022-11-14T15:39:35;9.50;;;5.93;;
57858;SDS011;49153;45.568;11.894;2022-11-14T15:42:13;7.95;;;5.20;;
57858;SDS011;49153;45.568;11.894;2022-11-14T15:44:42;8.98;;;5.10;;
57858;SDS011;49153;45.568;11.894;2022-11-14T15:47:16;7.50;;;5.45;;
57858;SDS011;49153;45.568;11.894;2022-11-14T15:54:49;12.07;;;5.28;;
57858;SDS011;49153;45.568;11.894;2022-11-14T15:57:14;7.57;;;5.20;;
57858;SDS011;49153;45.568;11.894;2022-11-14T15:59:41;8.57;;;4.95;;
57858;SDS011;49153;45.568;11.894;2022-11-14T16:04:56;9.90;;;5.65;;
57858;SDS011;49153;45.568;11.894;2022-11-14T16:07:23;10.15;;;6.05;;
57858;SDS011;49153;45.568;11.894;2022-11-14T16:09:49;9.07;;;5.40;;
57858;SDS011;49153;45.568;11.894;2022-11-14T16:12:15;11.27;;;6.13;;
57858;SDS011;49153;45.568;11.894;2022-11-14T16:14:41;10.00;;;5.78;;
57858;SDS011;49153;45.568;11.894;2022-11-14T16:17:11;8.55;;;5.45;;
57858;SDS011;49153;45.568;11.894;2022-11-14T16:19:37;7.50;;;5.43;;
57858;SDS011;49153;45.568;11.894;2022-11-14T16:22:03;10.57;;;5.75;;
57858;SDS011;49153;45.568;11.894;2022-11-14T16:24:28;8.35;;;5.50;;
57858;SDS011;49153;45.568;11.894;2022-11-14T16:26:56;8.93;;;5.85;;
57858;SDS011;49153;45.568;11.894;2022-11-14T16:29:22;10.10;;;6.70;;
57858;SDS011;49153;45.568;11.894;2022-11-14T16:31:48;11.40;;;7.00;;
57858;SDS011;49153;45.568;11.894;2022-11-14T16:34:19;9.07;;;5.97;;
57858;SDS011;49153;45.568;11.894;2022-11-14T16:36:55;8.98;;;6.03;;
57858;SDS011;49153;45.568;11.894;2022-11-14T16:39:22;9.55;;;6.63;;
57858;SDS011;49153;45.568;11.894;2022-11-14T16:41:47;9.68;;;6.22;;
57858;SDS011;49153;45.568;11.894;2022-11-14T16:44:15;9.00;;;6.25;;
57858;SDS011;49153;45.568;11.894;2022-11-14T16:46:42;9.13;;;6.35;;
57858;SDS011;49153;45.568;11.894;2022-11-14T16:49:10;10.55;;;6.55;;
57858;SDS011;49153;45.568;11.894;2022-11-14T16:51:38;10.32;;;6.75;;
57858;SDS011;49153;45.568;11.894;2022-11-14T16:54:03;10.65;;;6.80;;